Saskatoon John G. Diefenbaker International Airport

Airport
ICAO code: 
CYXE
Summary
ICAO Region: 
NAM
Territory: 
Location: 
Saskatoon, Saskatchewan,
Coordinates: 
Aerial View: 
52° 10' 14.999" N, 106° 41' 58.999" W
Airport CFIT: 
Altimeter Temperature Error Correction
Airport GND: 
Aircraft Ground De/Anti Icing
Metar
Observation
CYXE 271000Z 28010KT 15SM SCT110 M03/M09 A3002 RMK AC3 SLP195
Station
Saskatoon, Sask.
Date/Time
2021-11-27 10:00:00
Wind direction
280°
Wind speed
10 kts
Lowest cloud amount
scattered clouds
Temperature
-3°C
Dew point
-9°C
Humidity
63%
Weather condition
n/a

Description

International airport serving Saskatoon, Saskatchewan.

Climatology

Humid Continental climate (Köppen climate classification Dfb) - Variable weather patterns and a large seasonal temperature variance. Summers are often warm and humid with frequent thunderstorms and winters can be very cold with frequent snowfall and persistent snow cover.

Runways

Designator Length Width Surface Rops
15/33 1890 46 ASP Yes/Yes
9/27 2530 61 ASP Yes/Yes
Airport map: 
Aerial View: 

SKYbrary Partners:

Safety knowledge contributed by: